Time;durP1;ratioP1;P1;durP2;ratioP2;P2;SDS_P1;SDS_P2;PMS_P1;PMS_P2;Temp;Humidity;BMP_temperature;BMP_pressure;BME280_temperature;BME280_humidity;BME280_pressure;Samples;Min_cycle;Max_cycle;Signal;HPM_P1;HPM_P2
2024/03/15 00:00:06;;;;;;;0.10;0.10;;;;;;;28.34;40.04;98098.63;7391605;19;20472;-84
2024/03/15 00:02:32;;;;;;;0.65;0.30;;;;;;;27.52;41.55;98091.56;7392128;19;20022;-84
2024/03/15 00:04:59;;;;;;;0.10;0.10;;;;;;;27.68;40.68;98093.13;7392624;19;20019;-85
2024/03/15 00:07:25;;;;;;;0.45;0.10;;;;;;;27.86;40.63;98095.44;7391563;19;20028;-84
2024/03/15 00:09:51;;;;;;;0.40;0.20;;;;;;;27.06;41.72;98095.53;7389020;19;20459;-85
2024/03/15 00:12:17;;;;;;;0.80;0.43;;;;;;;27.17;41.47;98096.81;7391730;19;20042;-85
2024/03/15 00:14:44;;;;;;;1.80;0.60;;;;;;;26.27;42.83;98091.13;7389598;19;20022;-84
2024/03/15 00:17:11;;;;;;;3.70;0.57;;;;;;;27.05;42.31;98103.34;7391139;19;20026;-85
2024/03/15 00:19:37;;;;;;;0.38;0.30;;;;;;;26.71;42.02;98098.59;7389788;19;20018;-85
2024/03/15 00:22:04;;;;;;;1.92;0.65;;;;;;;27.07;42.52;98104.84;7392933;19;20019;-86
2024/03/15 00:24:30;;;;;;;0.10;0.10;;;;;;;27.54;41.29;98111.69;7388213;19;20030;-85
2024/03/15 00:26:56;;;;;;;0.32;0.32;;;;;;;28.85;39.66;98106.78;7389880;19;20018;-85
2024/03/15 00:29:22;;;;;;;9.10;0.30;;;;;;;30.45;37.23;98103.91;7387589;19;20405;-86
2024/03/15 00:31:48;;;;;;;0.10;0.10;;;;;;;30.31;37.60;98106.19;7390537;19;20110;-85
2024/03/15 00:34:14;;;;;;;4.95;0.40;;;;;;;29.16;38.96;98106.84;7390071;19;20011;-85
2024/03/15 00:36:44;;;;;;;6.57;1.17;;;;;;;30.14;37.44;98112.63;7389563;19;20037;-85
2024/03/15 00:39:11;;;;;;;1.30;0.70;;;;;;;30.40;36.95;98103.00;7390407;19;20541;-85
2024/03/15 00:41:37;;;;;;;0.10;0.00;;;;;;;30.38;36.57;98105.78;7390237;19;20015;-85
2024/03/15 00:44:05;;;;;;;7.10;0.47;;;;;;;28.69;38.60;98115.38;7392067;19;20020;-85
2024/03/15 00:46:31;;;;;;;6.03;0.65;;;;;;;25.21;43.93;98116.84;7390440;19;20029;-84
2024/03/15 00:48:57;;;;;;;1.33;0.43;;;;;;;25.99;43.26;98118.00;7388885;19;20261;-85
2024/03/15 00:51:25;;;;;;;1.00;0.82;;;;;;;26.03;43.66;98111.81;7388009;19;20473;-85
2024/03/15 00:53:51;;;;;;;0.20;0.20;;;;;;;26.18;44.13;98106.28;7387971;19;20467;-85
2024/03/15 00:56:17;;;;;;;3.10;0.52;;;;;;;26.20;44.14;98114.25;7388014;19;20422;-85
2024/03/15 00:58:43;;;;;;;0.10;0.10;;;;;;;26.58;44.10;98110.72;7394377;19;20011;-85
2024/03/15 01:01:10;;;;;;;0.40;0.10;;;;;;;27.26;42.98;98110.91;7396657;19;20022;-85
2024/03/15 01:03:36;;;;;;;7.68;0.63;;;;;;;27.81;42.37;98100.22;7395287;19;20407;-85
2024/03/15 01:06:03;;;;;;;0.40;0.40;;;;;;;27.88;41.92;98102.00;7398158;19;20028;-85
2024/03/15 01:08:29;;;;;;;0.13;0.13;;;;;;;27.89;41.60;98114.94;7395589;19;20022;-85
2024/03/15 01:10:55;;;;;;;1.05;0.45;;;;;;;27.57;42.25;98110.44;7393447;19;20590;-86
2024/03/15 01:13:21;;;;;;;3.40;0.80;;;;;;;26.97;42.77;98111.50;7396919;19;20025;-85
2024/03/15 01:15:47;;;;;;;1.08;0.47;;;;;;;26.66;43.60;98108.31;7394611;19;20045;-85
2024/03/15 01:18:13;;;;;;;0.20;0.20;;;;;;;26.42;43.98;98103.34;7400785;19;20023;-84
2024/03/15 01:20:39;;;;;;;2.28;0.30;;;;;;;26.98;42.68;98098.66;7395224;19;20019;-85
2024/03/15 01:23:05;;;;;;;0.32;0.32;;;;;;;27.09;42.58;98090.66;7399430;19;20014;-85
2024/03/15 01:25:35;;;;;;;0.43;0.40;;;;;;;26.99;42.58;98094.47;7394309;19;20014;-85
2024/03/15 01:28:02;;;;;;;0.22;0.22;;;;;;;27.18;42.12;98095.44;7397940;19;20058;-85
2024/03/15 01:30:30;;;;;;;2.13;0.73;;;;;;;26.96;42.26;98084.28;7393451;19;20031;-84
2024/03/15 01:32:57;;;;;;;10.13;1.00;;;;;;;26.45;43.17;98080.00;7394557;19;20090;-85
2024/03/15 01:35:23;;;;;;;0.10;0.10;;;;;;;26.48;43.31;98081.59;7396995;19;20527;-85
2024/03/15 01:37:50;;;;;;;11.63;0.85;;;;;;;26.42;43.29;98084.13;7398658;19;20015;-85
2024/03/15 01:40:17;;;;;;;14.65;1.92;;;;;;;26.50;43.17;98078.84;7394308;19;20038;-83
2024/03/15 01:42:43;;;;;;;2.83;0.47;;;;;;;26.42;43.23;98077.66;7396914;19;20014;-85
2024/03/15 01:45:10;;;;;;;6.93;0.55;;;;;;;26.53;42.98;98080.44;7394532;19;20028;-84
2024/03/15 01:47:36;;;;;;;0.60;0.32;;;;;;;27.54;41.52;98077.38;7396879;19;20399;-84
2024/03/15 01:50:07;;;;;;;1.48;0.65;;;;;;;27.40;41.82;98070.91;7394094;19;20027;-85
2024/03/15 01:52:34;;;;;;;0.10;0.00;;;;;;;26.82;42.13;98069.25;7393698;19;20021;-84
2024/03/15 01:55:02;;;;;;;0.13;0.13;;;;;;;26.67;42.68;98074.78;7394141;19;20081;-85
2024/03/15 01:57:28;;;;;;;1.00;0.43;;;;;;;26.54;42.98;98067.66;7396671;19;20018;-85
2024/03/15 01:59:54;;;;;;;0.93;0.32;;;;;;;26.42;43.14;98067.00;7394661;19;20010;-84
2024/03/15 02:02:22;;;;;;;0.75;0.15;;;;;;;26.36;43.17;98066.63;7396184;19;20034;-85
2024/03/15 02:04:54;;;;;;;0.40;0.35;;;;;;;26.35;42.59;98073.72;7396737;19;20014;-84
2024/03/15 02:07:22;;;;;;;0.45;0.25;;;;;;;26.45;43.07;98068.56;7393326;19;20033;-85
2024/03/15 02:09:48;;;;;;;0.28;0.28;;;;;;;26.85;41.81;98062.28;7391720;19;20086;-85
2024/03/15 02:12:15;;;;;;;0.20;0.20;;;;;;;26.28;42.76;98060.47;7394793;19;20704;-85
2024/03/15 02:14:41;;;;;;;0.20;0.10;;;;;;;26.23;42.67;98064.47;7393969;19;20470;-84
2024/03/15 02:17:07;;;;;;;13.27;0.65;;;;;;;26.65;42.06;98055.41;7394663;19;20022;-85
2024/03/15 02:19:33;;;;;;;0.75;0.20;;;;;;;27.10;41.21;98049.25;7394764;19;20022;-85
2024/03/15 02:21:59;;;;;;;2.83;0.63;;;;;;;27.50;40.84;98049.31;7397100;19;20014;-85
2024/03/15 02:24:25;;;;;;;5.15;0.52;;;;;;;27.59;40.66;98039.03;7391478;19;20022;-84
2024/03/15 02:26:51;;;;;;;1.65;0.52;;;;;;;27.39;40.67;98050.16;7396640;19;20502;-84
2024/03/15 02:29:18;;;;;;;0.32;0.32;;;;;;;26.51;41.53;98040.34;7393565;19;20472;-84
2024/03/15 02:31:46;;;;;;;7.43;0.68;;;;;;;26.70;40.86;98036.41;7393548;19;20029;-85
2024/03/15 02:34:13;;;;;;;1.30;0.47;;;;;;;25.87;42.35;98037.44;7393456;19;20015;-85
2024/03/15 02:36:42;;;;;;;1.45;0.25;;;;;;;25.16;43.44;98041.03;7389612;19;20022;-83
2024/03/15 02:39:08;;;;;;;18.40;0.77;;;;;;;25.49;43.28;98050.16;7390951;19;20033;-85
2024/03/15 02:41:35;;;;;;;0.90;0.50;;;;;;;25.55;43.45;98041.97;7390390;19;20014;-84
2024/03/15 02:44:01;;;;;;;0.38;0.38;;;;;;;25.03;44.24;98044.50;7393332;19;20038;-84
2024/03/15 02:46:27;;;;;;;0.10;0.00;;;;;;;27.01;41.57;98040.28;7391653;19;20090;-83
2024/03/15 02:48:53;;;;;;;0.13;0.13;;;;;;;27.78;40.01;98041.41;7390829;19;20098;-83
2024/03/15 02:51:19;;;;;;;0.17;0.17;;;;;;;28.17;39.83;98039.09;7389834;19;20369;-83
2024/03/15 02:53:45;;;;;;;3.10;1.27;;;;;;;28.38;39.31;98041.56;7397173;19;20081;-84
2024/03/15 02:56:13;;;;;;;1.02;0.65;;;;;;;28.90;38.76;98048.28;7391674;19;20018;-84
2024/03/15 02:58:40;;;;;;;7.30;0.95;;;;;;;28.92;38.27;98045.50;7393629;19;20021;-84
2024/03/15 03:01:07;;;;;;;2.15;0.28;;;;;;;28.87;38.54;98043.88;7392718;19;20022;-84
2024/03/15 03:03:33;;;;;;;0.50;0.47;;;;;;;29.26;38.12;98040.63;7393051;19;20010;-84
2024/03/15 03:05:59;;;;;;;2.17;0.75;;;;;;;29.37;37.92;98037.53;7394021;19;20014;-85
2024/03/15 03:08:25;;;;;;;0.20;0.20;;;;;;;29.40;37.66;98039.13;7392526;19;20019;-85
2024/03/15 03:10:51;;;;;;;0.10;0.10;;;;;;;30.32;36.65;98032.97;7390626;19;20018;-85
2024/03/15 03:13:17;;;;;;;11.45;0.68;;;;;;;30.93;35.65;98036.81;7391916;19;20021;-85
2024/03/15 03:15:43;;;;;;;12.80;0.75;;;;;;;31.73;35.09;98026.78;7390942;19;20787;-85
2024/03/15 03:18:09;;;;;;;0.43;0.35;;;;;;;31.24;35.13;98016.41;7396167;19;20480;-85
2024/03/15 03:20:35;;;;;;;2.05;1.02;;;;;;;31.33;35.12;98012.44;7392049;19;20046;-85
2024/03/15 03:23:08;;;;;;;0.75;0.20;;;;;;;31.35;34.75;98018.25;7394553;19;20040;-86
2024/03/15 03:25:35;;;;;;;8.82;0.82;;;;;;;31.07;34.91;98014.34;7389607;19;20514;-86
2024/03/15 03:28:01;;;;;;;0.30;0.30;;;;;;;30.82;35.27;98011.94;7391909;19;20014;-86
2024/03/15 03:30:27;;;;;;;11.27;1.58;;;;;;;30.69;35.20;98016.50;7395176;19;20398;-86
2024/03/15 03:32:53;;;;;;;3.20;0.40;;;;;;;30.61;35.40;98012.56;7392519;19;20438;-86
2024/03/15 03:35:19;;;;;;;1.45;0.30;;;;;;;31.02;35.13;98009.84;7389250;19;20022;-85
2024/03/15 03:37:45;;;;;;;0.40;0.10;;;;;;;31.70;34.11;97996.44;7392190;19;20089;-86
2024/03/15 03:40:14;;;;;;;0.50;0.20;;;;;;;31.88;33.52;97997.06;7395371;19;20112;-86
2024/03/15 03:42:44;;;;;;;0.10;0.00;;;;;;;32.43;33.54;98008.94;7392173;19;20379;-86
2024/03/15 03:45:16;;;;;;;9.20;0.93;;;;;;;32.33;33.19;97994.25;7390353;19;20037;-85
2024/03/15 03:47:48;;;;;;;0.65;0.57;;;;;;;32.35;33.33;98014.47;7396319;19;20011;-86
2024/03/15 03:50:14;;;;;;;0.32;0.32;;;;;;;32.47;32.66;97991.81;7394658;19;20090;-85
2024/03/15 03:52:41;;;;;;;0.68;0.32;;;;;;;32.69;32.96;98006.91;7390003;19;20011;-86
2024/03/15 03:55:07;;;;;;;1.50;0.47;;;;;;;32.53;33.07;98005.69;7391910;19;20033;-86
2024/03/15 03:57:34;;;;;;;0.17;0.17;;;;;;;32.19;33.22;97996.66;7392278;19;20489;-86
2024/03/15 04:00:04;;;;;;;4.13;0.43;;;;;;;32.04;33.44;97991.84;7394630;19;20013;-86
2024/03/15 04:02:38;;;;;;;7.93;0.65;;;;;;;32.50;33.00;98002.00;7392209;19;20010;-85
2024/03/15 04:05:05;;;;;;;1.30;0.32;;;;;;;32.65;33.01;97994.50;7390116;19;20022;-86
2024/03/15 04:07:32;;;;;;;7.18;0.63;;;;;;;32.73;32.75;98007.03;7389572;19;20007;-85
2024/03/15 04:09:58;;;;;;;0.10;0.10;;;;;;;32.65;32.74;98001.03;7390119;19;20014;-86
2024/03/15 04:12:26;;;;;;;0.10;0.00;;;;;;;32.52;32.71;97999.19;7393407;19;20035;-86
2024/03/15 04:14:55;;;;;;;0.28;0.28;;;;;;;32.48;32.98;98004.81;7390909;19;20045;-85
2024/03/15 04:17:23;;;;;;;4.38;0.95;;;;;;;32.61;32.95;98008.81;7395220;19;20018;-86
2024/03/15 04:19:49;;;;;;;0.30;0.10;;;;;;;32.46;33.17;98016.25;7390082;19;20366;-86
2024/03/15 04:22:16;;;;;;;0.40;0.20;;;;;;;32.29;33.36;98005.66;7392054;19;20356;-86
2024/03/15 04:24:43;;;;;;;0.10;0.10;;;;;;;32.34;33.21;98004.34;7393651;19;20030;-86
2024/03/15 04:27:10;;;;;;;0.30;0.25;;;;;;;32.33;33.18;98005.78;7391112;19;20020;-86
2024/03/15 04:29:36;;;;;;;5.88;0.38;;;;;;;32.23;32.79;98014.06;7390930;19;20064;-86
2024/03/15 04:32:03;;;;;;;6.55;0.52;;;;;;;32.28;33.07;98001.28;7388066;19;20018;-85
2024/03/15 04:34:33;;;;;;;5.15;1.63;;;;;;;32.28;33.02;97995.50;7388934;19;20018;-86
2024/03/15 04:36:59;;;;;;;0.75;0.38;;;;;;;33.09;32.53;98000.88;7391961;19;20011;-85
2024/03/15 04:39:25;;;;;;;0.17;0.17;;;;;;;33.25;31.80;97989.78;7391270;19;20023;-86
2024/03/15 04:41:51;;;;;;;0.98;0.88;;;;;;;33.05;32.13;97995.00;7389105;19;20050;-86
2024/03/15 04:44:22;;;;;;;0.28;0.10;;;;;;;32.87;32.26;97993.03;7390417;19;20023;-85
2024/03/15 04:46:48;;;;;;;2.38;1.30;;;;;;;33.13;32.06;97989.44;7390962;19;20094;-85
2024/03/15 04:49:17;;;;;;;0.10;0.00;;;;;;;33.53;31.65;97990.56;7393648;19;20345;-85
2024/03/15 04:51:43;;;;;;;1.75;0.10;;;;;;;33.81;31.05;97985.53;7389271;19;20037;-85
2024/03/15 04:54:09;;;;;;;0.30;0.15;;;;;;;33.52;31.54;97992.75;7388560;19;20374;-86
2024/03/15 04:56:35;;;;;;;1.05;0.50;;;;;;;33.57;31.57;97997.19;7387817;19;20104;-85
2024/03/15 04:59:02;;;;;;;6.25;0.22;;;;;;;33.71;31.54;97998.97;7389147;19;20018;-85
2024/03/15 05:01:28;;;;;;;0.10;0.10;;;;;;;33.70;31.34;97992.47;7393506;19;20018;-85
2024/03/15 05:03:54;;;;;;;0.55;0.32;;;;;;;33.76;31.38;98004.19;7390383;19;20540;-86
2024/03/15 05:06:21;;;;;;;3.60;0.40;;;;;;;33.74;31.29;97998.38;7387129;19;20019;-85
2024/03/15 05:08:47;;;;;;;0.45;0.22;;;;;;;33.83;31.24;98000.00;7388275;19;20029;-85
2024/03/15 05:11:15;;;;;;;2.42;1.52;;;;;;;33.81;31.06;97997.06;7390332;19;20030;-85
2024/03/15 05:13:41;;;;;;;5.57;0.68;;;;;;;33.60;31.28;97997.97;7388005;19;20014;-86
2024/03/15 05:16:12;;;;;;;2.10;0.95;;;;;;;33.61;31.45;98003.06;7387834;19;20037;-86
2024/03/15 05:18:40;;;;;;;0.17;0.13;;;;;;;33.81;31.20;97994.19;7388763;19;20011;-85
2024/03/15 05:21:06;;;;;;;0.13;0.10;;;;;;;33.77;31.33;97996.97;7387938;19;20044;-85
2024/03/15 05:23:32;;;;;;;0.10;0.10;;;;;;;33.82;31.12;97992.03;7391713;19;20029;-85
2024/03/15 05:25:58;;;;;;;15.05;2.10;;;;;;;33.68;30.99;97994.59;7388113;19;20033;-86
2024/03/15 05:28:24;;;;;;;2.13;0.40;;;;;;;33.59;31.18;97999.41;7387464;19;20042;-85
2024/03/15 05:30:50;;;;;;;0.28;0.28;;;;;;;33.41;31.44;97984.44;7386261;19;20007;-86
2024/03/15 05:33:16;;;;;;;0.70;0.40;;;;;;;33.68;31.33;97989.53;7392096;19;20011;-86
2024/03/15 05:35:43;;;;;;;1.02;0.75;;;;;;;33.75;31.09;97994.03;7385407;19;20011;-85
2024/03/15 05:38:09;;;;;;;0.60;0.50;;;;;;;33.84;31.17;98001.50;7388069;19;20476;-85
2024/03/15 05:40:35;;;;;;;9.85;2.05;;;;;;;34.28;30.51;97991.03;7387765;19;20026;-85
2024/03/15 05:43:01;;;;;;;1.30;0.50;;;;;;;34.24;30.77;97984.44;7389943;19;20018;-85
2024/03/15 05:45:28;;;;;;;0.63;0.32;;;;;;;34.62;30.10;97984.59;7395306;19;20015;-85
2024/03/15 05:47:54;;;;;;;0.32;0.32;;;;;;;34.71;30.04;97983.34;7397989;19;20141;-85
2024/03/15 05:50:20;;;;;;;3.05;0.90;;;;;;;34.78;30.15;97996.53;7395014;19;20039;-85
2024/03/15 05:52:46;;;;;;;0.10;0.05;;;;;;;35.02;29.72;97991.28;7393670;19;20006;-85
2024/03/15 05:55:13;;;;;;;0.25;0.20;;;;;;;34.83;29.73;97995.19;7393137;19;20025;-85
2024/03/15 05:57:39;;;;;;;3.75;0.57;;;;;;;34.65;29.83;97991.91;7395385;19;20018;-84
2024/03/15 06:00:13;;;;;;;11.23;0.60;;;;;;;34.72;29.84;97999.28;7395459;19;20022;-84
2024/03/15 06:02:39;;;;;;;5.47;0.30;;;;;;;34.80;29.63;97996.56;7395745;19;20050;-84
2024/03/15 06:05:07;;;;;;;0.20;0.10;;;;;;;34.78;29.86;97999.44;7393024;19;20015;-85
2024/03/15 06:07:34;;;;;;;1.55;0.38;;;;;;;34.64;29.72;98002.00;7395128;19;20018;-85
2024/03/15 06:10:01;;;;;;;14.35;0.55;;;;;;;34.37;30.09;98002.81;7394752;19;20017;-84
2024/03/15 06:12:27;;;;;;;0.55;0.55;;;;;;;34.26;29.98;98005.44;7395848;19;20014;-85
2024/03/15 06:14:54;;;;;;;0.10;0.00;;;;;;;34.27;30.08;98009.06;7394327;19;20508;-85
2024/03/15 06:17:20;;;;;;;0.38;0.10;;;;;;;34.24;30.09;98014.06;7397325;19;20043;-85
2024/03/15 06:19:48;;;;;;;0.10;0.10;;;;;;;34.25;30.17;98003.25;7396252;19;20382;-86
2024/03/15 06:22:15;;;;;;;1.27;0.40;;;;;;;34.15;29.94;98012.44;7394795;19;20130;-85
2024/03/15 06:24:41;;;;;;;0.40;0.40;;;;;;;34.10;30.45;98027.44;7393608;19;20018;-85
2024/03/15 06:27:13;;;;;;;0.10;0.10;;;;;;;34.07;30.00;98018.00;7395171;19;20007;-86
2024/03/15 06:29:40;;;;;;;0.10;0.10;;;;;;;34.17;29.53;98015.38;7395564;19;20019;-84
2024/03/15 06:32:08;;;;;;;0.93;0.65;;;;;;;34.08;29.81;98019.47;7395453;19;20462;-85
2024/03/15 06:34:35;;;;;;;2.47;0.85;;;;;;;34.09;30.16;98028.88;7394314;19;20373;-85
2024/03/15 06:37:05;;;;;;;0.20;0.20;;;;;;;31.10;32.51;98033.16;7392418;19;20043;-85
2024/03/15 06:45:57;;;;;;;12.05;2.72;;;;;;;29.39;34.58;98049.09;7393893;19;20010;-85
2024/03/15 06:47:52;;;;;;;4.45;1.70;;;;;;;27.33;37.66;98051.94;7393888;19;20018;-86
2024/03/15 06:52:45;;;;;;;10.75;2.67;;;;;;;28.83;36.16;98055.13;7392232;19;20010;-86
2024/03/15 06:55:11;;;;;;;6.85;2.10;;;;;;;27.57;37.59;98059.66;7393032;19;20019;-85
2024/03/15 06:57:39;;;;;;;5.28;1.60;;;;;;;28.45;36.72;98062.63;7391899;19;20018;-85
2024/03/15 07:00:09;;;;;;;8.68;2.15;;;;;;;28.29;36.72;98054.00;7393098;19;20022;-85
2024/03/15 07:02:40;;;;;;;;;;;;;;;28.73;36.48;98066.13;7391991;19;20011;-85
2024/03/15 07:05:07;;;;;;;5.32;2.83;;;;;;;28.78;36.59;98067.78;7387903;19;19919;-85
2024/03/15 07:07:37;;;;;;;11.00;1.80;;;;;;;28.93;36.73;98069.94;7388522;19;20047;-85
2024/03/15 07:10:06;;;;;;;7.68;2.20;;;;;;;27.89;38.02;98074.88;7388202;19;20027;-86
2024/03/15 07:12:34;;;;;;;2.55;1.17;;;;;;;27.53;38.50;98070.16;7388392;19;20407;-85
2024/03/15 07:15:00;;;;;;;10.40;0.93;;;;;;;27.12;38.90;98075.09;7385941;19;20019;-85
2024/03/15 07:17:27;;;;;;;2.42;0.68;;;;;;;29.19;36.66;98071.16;7391568;19;20040;-85
2024/03/15 07:19:55;;;;;;;0.20;0.20;;;;;;;30.34;35.37;98073.28;7392127;19;20015;-85
2024/03/15 07:22:23;;;;;;;2.55;1.08;;;;;;;29.87;35.48;98077.06;7396583;19;20512;-85
2024/03/15 07:24:49;;;;;;;0.88;0.55;;;;;;;30.08;35.48;98077.91;7392477;19;20050;-85
2024/03/15 07:27:15;;;;;;;9.45;1.02;;;;;;;30.29;35.08;98080.97;7392841;19;20019;-85
2024/03/15 07:29:42;;;;;;;5.13;1.25;;;;;;;30.64;34.42;98075.22;7392593;19;20015;-85
2024/03/15 07:32:10;;;;;;;0.52;0.50;;;;;;;30.57;34.82;98081.38;7391318;19;20022;-85
2024/03/15 07:34:36;;;;;;;0.20;0.10;;;;;;;30.62;34.63;98075.13;7391130;19;20023;-85
2024/03/15 07:37:03;;;;;;;1.17;0.43;;;;;;;29.90;35.39;98086.50;7392528;19;20567;-85
2024/03/15 07:39:30;;;;;;;0.20;0.20;;;;;;;29.71;35.44;98076.34;7391902;19;20509;-85
2024/03/15 07:41:59;;;;;;;0.50;0.50;;;;;;;29.50;35.77;98084.72;7392367;19;20025;-85
2024/03/15 07:44:27;;;;;;;2.25;0.30;;;;;;;29.79;35.29;98081.72;7390277;19;20018;-85
2024/03/15 07:46:53;;;;;;;2.60;0.55;;;;;;;30.03;35.31;98087.75;7394777;19;20018;-85
2024/03/15 07:49:19;;;;;;;1.75;0.35;;;;;;;29.89;35.59;98085.00;7392772;19;20014;-85
2024/03/15 07:51:46;;;;;;;0.90;0.68;;;;;;;31.05;34.78;98080.44;7389097;19;20089;-85
2024/03/15 07:54:12;;;;;;;1.35;0.52;;;;;;;31.12;34.47;98076.34;7392352;19;20023;-85
2024/03/15 07:56:38;;;;;;;0.63;0.22;;;;;;;30.99;34.78;98073.72;7391253;19;20038;-85
2024/03/15 07:59:04;;;;;;;0.10;0.10;;;;;;;30.08;35.71;98083.66;7390394;19;20010;-85
2024/03/15 08:01:31;;;;;;;1.88;0.55;;;;;;;30.16;35.56;98096.22;7390467;19;20006;-84
2024/03/15 08:03:57;;;;;;;0.10;0.10;;;;;;;30.16;35.39;98098.34;7389912;19;20019;-85
2024/03/15 08:06:23;;;;;;;1.52;0.63;;;;;;;30.06;35.60;98098.66;7388120;19;20232;-85
2024/03/15 08:08:51;;;;;;;4.78;0.20;;;;;;;30.39;35.76;98100.75;7390175;19;20023;-84
2024/03/15 08:11:18;;;;;;;1.45;0.85;;;;;;;30.43;35.50;98106.69;7388969;19;20022;-84
2024/03/15 08:13:46;;;;;;;0.10;0.10;;;;;;;30.45;35.71;98098.16;7393486;19;20487;-85
2024/03/15 08:16:18;;;;;;;0.20;0.10;;;;;;;30.76;35.22;98102.94;7390300;19;20015;-85
2024/03/15 08:18:48;;;;;;;4.93;1.35;;;;;;;30.63;35.54;98107.47;7392357;19;20499;-85
2024/03/15 08:21:15;;;;;;;5.00;0.95;;;;;;;31.00;35.62;98104.66;7391550;19;20019;-85
2024/03/15 08:23:42;;;;;;;1.25;0.38;;;;;;;30.99;34.97;98111.09;7392176;19;20015;-85
2024/03/15 08:26:14;;;;;;;0.82;0.35;;;;;;;31.34;34.90;98105.97;7390935;19;20362;-85
2024/03/15 08:28:40;;;;;;;0.20;0.20;;;;;;;31.19;34.71;98103.97;7390617;19;20030;-85
2024/03/15 08:31:07;;;;;;;0.10;0.10;;;;;;;31.56;34.57;98111.06;7387744;19;20508;-85
2024/03/15 08:33:34;;;;;;;0.75;0.30;;;;;;;31.51;34.88;98115.22;7388550;19;20030;-85
2024/03/15 08:36:00;;;;;;;3.20;0.63;;;;;;;31.52;34.47;98116.69;7389150;19;20014;-85
2024/03/15 08:38:26;;;;;;;1.85;0.70;;;;;;;31.87;34.39;98113.66;7393297;19;20018;-85
2024/03/15 08:40:52;;;;;;;3.45;1.00;;;;;;;31.54;35.01;98117.50;7389359;19;20480;-85
2024/03/15 08:43:19;;;;;;;0.68;0.10;;;;;;;31.72;34.70;98121.06;7389316;19;20017;-85
2024/03/15 08:45:49;;;;;;;0.45;0.45;;;;;;;32.59;33.75;98124.81;7390550;19;20086;-85
2024/03/15 08:48:17;;;;;;;0.10;0.00;;;;;;;32.27;33.70;98120.81;7392147;19;20018;-84
2024/03/15 08:50:46;;;;;;;0.38;0.38;;;;;;;34.34;31.12;98120.53;7388280;19;20018;-85
2024/03/15 08:53:13;;;;;;;3.60;0.30;;;;;;;32.98;32.50;98118.09;7390893;19;20015;-86
2024/03/15 08:55:41;;;;;;;2.42;0.57;;;;;;;32.38;33.29;98128.38;7387959;19;20032;-86
2024/03/15 08:58:11;;;;;;;2.08;0.55;;;;;;;31.96;33.52;98126.97;7393050;19;20029;-85
2024/03/15 09:00:40;;;;;;;7.53;0.77;;;;;;;31.80;33.90;98140.75;7388672;19;20022;-85
2024/03/15 09:03:06;;;;;;;1.85;0.98;;;;;;;31.75;34.03;98142.03;7388594;19;20030;-85
2024/03/15 09:05:33;;;;;;;2.55;0.20;;;;;;;32.24;33.67;98136.56;7388836;19;20490;-85
2024/03/15 09:07:59;;;;;;;13.88;0.85;;;;;;;31.67;34.25;98145.34;7391756;19;20022;-85
2024/03/15 09:10:25;;;;;;;0.38;0.30;;;;;;;31.08;34.62;98150.28;7386576;19;20029;-85
2024/03/15 09:12:51;;;;;;;0.30;0.25;;;;;;;31.21;34.62;98140.69;7386544;19;20029;-85
2024/03/15 09:15:20;;;;;;;2.22;0.77;;;;;;;31.26;34.41;98148.81;7388613;19;20059;-84
2024/03/15 09:17:49;;;;;;;4.40;0.55;;;;;;;31.51;34.06;98150.50;7394066;19;20367;-85
2024/03/15 09:22:41;;;;;;;10.05;1.42;;;;;;;31.65;34.03;98158.91;7398375;19;20019;-85
2024/03/15 09:25:07;;;;;;;4.50;0.77;;;;;;;31.54;33.74;98154.19;7393794;19;20057;-85
2024/03/15 09:27:36;;;;;;;15.38;0.70;;;;;;;30.71;34.24;98165.28;7397304;19;20078;-85
2024/03/15 09:30:16;;;;;;;11.95;1.83;;;;;;;30.65;34.67;98167.91;7393431;19;20014;-85
2024/03/15 09:32:48;;;;;;;1.63;1.20;;;;;;;30.73;34.84;98179.78;7395580;19;20015;-84
2024/03/15 09:35:14;;;;;;;5.65;0.38;;;;;;;30.59;34.51;98170.56;7393970;19;20031;-85
2024/03/15 09:37:50;;;;;;;5.20;0.70;;;;;;;31.18;34.42;98165.78;7396787;19;20014;-85
2024/03/15 09:40:21;;;;;;;3.10;0.55;;;;;;;31.53;33.93;98176.50;7395344;19;20027;-85
2024/03/15 09:42:48;;;;;;;5.88;0.95;;;;;;;31.72;33.93;98184.38;7394548;19;20045;-85
2024/03/15 09:45:18;;;;;;;5.10;0.93;;;;;;;31.43;34.10;98181.84;7393038;19;20518;-84
2024/03/15 09:47:51;;;;;;;5.38;0.25;;;;;;;32.40;33.19;98186.09;7398318;19;20486;-85
2024/03/15 09:50:23;;;;;;;3.30;0.35;;;;;;;32.29;33.07;98190.06;7394002;19;20018;-84
2024/03/15 09:52:53;;;;;;;4.53;0.43;;;;;;;31.71;33.31;98190.78;7394506;19;20014;-83
2024/03/15 09:55:19;;;;;;;7.68;0.63;;;;;;;32.01;33.95;98191.94;7394507;19;20025;-87
2024/03/15 09:57:48;;;;;;;3.38;0.38;;;;;;;34.69;31.51;98200.25;7396616;19;20015;-86
2024/03/15 10:00:21;;;;;;;7.88;0.43;;;;;;;34.72;30.98;98198.84;7395023;19;20011;-89
2024/03/15 10:02:48;;;;;;;0.52;0.20;;;;;;;33.23;32.58;98194.63;7395200;19;20015;-85
2024/03/15 10:05:16;;;;;;;5.35;1.52;;;;;;;32.98;32.93;98193.09;7394648;19;20029;-86
2024/03/15 10:07:43;;;;;;;0.80;0.10;;;;;;;32.45;32.96;98195.63;7398598;19;20472;-82
2024/03/15 10:10:13;;;;;;;3.78;0.65;;;;;;;32.47;32.69;98199.34;7392990;19;20314;-83
2024/03/15 10:12:44;;;;;;;0.65;0.10;;;;;;;32.22;32.95;98207.78;7395411;19;20025;-83
2024/03/15 10:15:13;;;;;;;0.90;0.00;;;;;;;32.28;33.78;98205.84;7393934;19;20086;-83
2024/03/15 10:17:40;;;;;;;1.13;0.57;;;;;;;32.29;33.40;98207.34;7396187;19;20019;-83
2024/03/15 10:20:11;;;;;;;4.97;0.50;;;;;;;32.67;32.65;98199.28;7392074;19;20480;-83
2024/03/15 10:22:38;;;;;;;;;;;;;;;32.48;33.31;98202.97;7399768;19;20077;-83
2024/03/15 10:25:13;;;;;;;0.10;0.10;;;;;;;31.97;33.50;98211.94;7392822;19;19925;-82
2024/03/15 10:27:39;;;;;;;1.88;0.10;;;;;;;31.81;33.76;98211.34;7397581;19;20021;-82
2024/03/15 10:30:14;;;;;;;4.88;0.47;;;;;;;32.03;33.82;98217.94;7394134;19;20383;-82
2024/03/15 10:32:41;;;;;;;0.40;0.20;;;;;;;31.75;34.11;98219.75;7392258;19;20011;-83
2024/03/15 10:35:15;;;;;;;1.20;0.10;;;;;;;32.03;34.17;98226.59;7392460;19;20525;-85
2024/03/15 10:37:42;;;;;;;0.63;0.63;;;;;;;31.95;33.94;98220.50;7396322;19;20011;-85
2024/03/15 10:40:13;;;;;;;0.28;0.25;;;;;;;32.36;34.01;98223.44;7395689;19;20014;-85
2024/03/15 10:42:41;;;;;;;;;;;;;;;32.10;34.20;98219.63;7393423;19;20035;-84
2024/03/15 10:45:11;;;;;;;1.48;0.30;;;;;;;31.65;34.66;98210.72;7391774;19;19955;-83
2024/03/15 10:47:40;;;;;;;;;;;;;;;31.36;35.36;98217.53;7399013;19;20018;-83
2024/03/15 10:50:15;;;;;;;0.10;0.10;;;;;;;31.42;35.52;98218.50;7393332;19;20258;-83
2024/03/15 10:52:43;;;;;;;1.42;0.25;;;;;;;30.51;36.77;98224.81;7393102;19;20025;-84
2024/03/15 10:55:16;;;;;;;0.10;0.10;;;;;;;31.96;35.80;98216.25;7390523;19;20026;-84
2024/03/15 10:57:43;;;;;;;4.45;0.47;;;;;;;32.55;35.10;98219.78;7391827;19;20074;-83
2024/03/15 11:00:17;;;;;;;2.05;0.73;;;;;;;32.75;34.85;98214.72;7397502;19;20014;-84
2024/03/15 11:02:48;;;;;;;3.80;0.30;;;;;;;33.03;34.80;98217.78;7393031;19;20056;-83
2024/03/15 11:05:18;;;;;;;;;;;;;;;31.80;35.99;98227.13;7391997;19;20082;-84
2024/03/15 11:07:49;;;;;;;1.98;0.85;;;;;;;30.97;36.59;98221.00;7391853;19;20646;-84
2024/03/15 11:10:21;;;;;;;0.40;0.25;;;;;;;31.00;37.30;98231.19;7391152;19;20504;-84
2024/03/15 11:12:50;;;;;;;0.20;0.10;;;;;;;31.23;37.38;98227.81;7395816;19;20026;-83
2024/03/15 11:15:21;;;;;;;0.55;0.22;;;;;;;31.38;36.99;98223.38;7391097;19;20034;-84
2024/03/15 11:17:58;;;;;;;0.38;0.38;;;;;;;31.82;36.87;98230.81;7397838;19;20018;-84
2024/03/15 11:20:24;;;;;;;0.82;0.40;;;;;;;32.12;36.69;98211.03;7393287;19;20014;-84
2024/03/15 11:22:55;;;;;;;0.57;0.20;;;;;;;33.31;35.23;98229.50;7395892;19;20014;-83
2024/03/15 11:25:21;;;;;;;4.18;0.93;;;;;;;32.12;36.01;98214.66;7392239;19;20026;-83
2024/03/15 11:27:58;;;;;;;5.18;0.15;;;;;;;31.39;36.49;98221.94;7393203;19;20019;-83
2024/03/15 11:30:27;;;;;;;0.63;0.10;;;;;;;32.95;35.27;98222.53;7392696;19;20440;-83
2024/03/15 11:32:55;;;;;;;0.45;0.10;;;;;;;33.93;33.45;98219.84;7391668;19;20078;-83
2024/03/15 11:35:22;;;;;;;0.08;0.00;;;;;;;33.57;33.83;98225.28;7391799;19;20045;-84
2024/03/15 11:37:55;;;;;;;0.60;0.20;;;;;;;33.59;33.27;98230.41;7393026;19;20010;-82
2024/03/15 11:40:24;;;;;;;0.40;0.20;;;;;;;33.60;33.33;98226.09;7391710;19;20049;-83
2024/03/15 11:42:50;;;;;;;7.43;0.55;;;;;;;33.09;34.02;98225.91;7391818;19;20018;-82
2024/03/15 11:45:17;;;;;;;1.00;0.28;;;;;;;32.63;33.86;98228.00;7392343;19;20019;-82